createdAt,value
2018-12-07T00:01:46.896Z,12.10
2018-12-07T00:03:51.714Z,12.10
2018-12-07T00:05:56.674Z,12.00
2018-12-07T00:08:01.571Z,12.00
2018-12-07T00:10:07.155Z,12.10
2018-12-07T00:12:11.816Z,12.10
2018-12-07T00:14:17.562Z,12.10
2018-12-07T00:16:23.032Z,12.00
2018-12-07T00:18:28.833Z,12.10
2018-12-07T00:20:33.990Z,12.10
2018-12-07T00:22:38.880Z,12.10
2018-12-07T00:24:43.709Z,12.10
2018-12-07T00:26:48.528Z,12.20
2018-12-07T00:28:53.833Z,12.20
2018-12-07T00:30:59.550Z,12.20
2018-12-07T00:33:04.335Z,12.20
2018-12-07T00:35:09.169Z,12.10
2018-12-07T00:37:13.985Z,12.20
2018-12-07T00:39:19.553Z,12.20
2018-12-07T00:41:24.417Z,12.10
2018-12-07T00:43:29.338Z,12.20
2018-12-07T00:45:35.454Z,12.20
2018-12-07T00:47:40.213Z,12.30
2018-12-07T00:49:45.099Z,12.20
2018-12-07T00:51:49.986Z,12.20
2018-12-07T00:53:55.764Z,12.20
2018-12-07T00:56:00.627Z,12.30
2018-12-07T00:58:06.498Z,12.30
2018-12-07T01:00:12.428Z,12.20
2018-12-07T01:02:17.321Z,12.20
2018-12-07T01:04:22.892Z,12.20
2018-12-07T01:06:28.538Z,12.20
2018-12-07T01:08:34.181Z,12.20
2018-12-07T01:10:39.247Z,12.20
2018-12-07T01:12:44.379Z,12.20
2018-12-07T01:14:49.196Z,12.20
2018-12-07T01:16:54.550Z,12.20
2018-12-07T01:18:59.350Z,12.20
2018-12-07T01:21:04.307Z,12.20
2018-12-07T01:23:10.519Z,12.10
2018-12-07T01:25:15.756Z,12.10
2018-12-07T01:27:21.195Z,12.10
2018-12-07T01:29:26.655Z,12.10
2018-12-07T01:31:31.779Z,12.10
2018-12-07T01:33:36.875Z,12.10
2018-12-07T01:35:41.649Z,12.00
2018-12-07T01:37:46.534Z,12.00
2018-12-07T01:39:51.224Z,12.00
2018-12-07T01:41:55.952Z,12.00
2018-12-07T01:44:01.069Z,12.00
2018-12-07T01:46:05.963Z,11.90
2018-12-07T01:48:10.633Z,11.90
2018-12-07T01:50:16.618Z,11.90
2018-12-07T01:52:21.417Z,11.90
2018-12-07T01:54:26.197Z,11.90
2018-12-07T01:56:30.984Z,11.90
2018-12-07T01:58:35.911Z,11.90
2018-12-07T02:00:40.859Z,12.00
2018-12-07T02:02:45.530Z,11.90
2018-12-07T02:04:50.396Z,11.90
2018-12-07T02:06:55.465Z,11.90
2018-12-07T02:09:00.497Z,11.90
2018-12-07T02:11:05.279Z,11.90
2018-12-07T02:13:09.984Z,11.80
2018-12-07T02:15:15.778Z,11.80
2018-12-07T02:17:20.607Z,11.80
2018-12-07T02:19:25.521Z,11.80
2018-12-07T02:21:32.143Z,11.80
2018-12-07T02:23:36.888Z,11.80
2018-12-07T02:25:41.683Z,11.80
2018-12-07T02:27:51.408Z,11.80
2018-12-07T02:29:56.184Z,11.70
2018-12-07T02:32:01.112Z,11.80
2018-12-07T02:34:06.058Z,11.70
2018-12-07T02:36:10.726Z,11.70
2018-12-07T02:38:15.401Z,11.70
2018-12-07T02:40:20.308Z,11.70
2018-12-07T02:42:25.516Z,11.70
2018-12-07T02:44:30.241Z,11.70
2018-12-07T02:46:35.609Z,11.70
2018-12-07T02:48:40.385Z,11.70
2018-12-07T02:50:45.201Z,11.70
2018-12-07T02:52:49.970Z,11.70
2018-12-07T02:54:54.664Z,11.70
2018-12-07T02:56:59.723Z,11.60
2018-12-07T02:59:05.086Z,11.70
2018-12-07T03:01:09.868Z,11.70
2018-12-07T03:03:15.546Z,11.70
2018-12-07T03:05:20.424Z,11.70
2018-12-07T03:07:26.843Z,11.70
2018-12-07T03:09:31.576Z,11.70
2018-12-07T03:11:36.398Z,11.70
2018-12-07T03:13:41.382Z,11.70
2018-12-07T03:15:46.360Z,11.70
2018-12-07T03:17:51.188Z,11.70
2018-12-07T03:19:56.502Z,11.70
2018-12-07T03:22:01.289Z,11.80
2018-12-07T03:24:07.776Z,11.80
2018-12-07T03:26:14.337Z,11.80
2018-12-07T03:28:19.209Z,11.80
2018-12-07T03:30:23.878Z,11.80
2018-12-07T03:32:28.694Z,11.80
2018-12-07T03:34:33.506Z,11.80
2018-12-07T03:36:38.245Z,11.80
2018-12-07T03:38:44.407Z,11.80
2018-12-07T03:40:49.265Z,11.80
2018-12-07T03:45:11.887Z,11.80
2018-12-07T03:47:16.758Z,11.80
2018-12-07T03:49:23.497Z,11.80
2018-12-07T03:51:29.123Z,11.80
2018-12-07T03:53:34.095Z,11.80
2018-12-07T03:55:39.053Z,11.90
2018-12-07T03:57:43.888Z,11.90
2018-12-07T03:59:48.736Z,11.90
2018-12-07T04:01:53.582Z,11.90
2018-12-07T04:03:58.382Z,11.90
2018-12-07T04:06:04.760Z,11.90
2018-12-07T04:08:10.438Z,11.90
2018-12-07T04:10:15.939Z,11.90
2018-12-07T04:12:21.650Z,11.90
2018-12-07T04:14:26.486Z,11.90
2018-12-07T04:16:31.283Z,11.90
2018-12-07T04:18:36.025Z,11.90
2018-12-07T04:20:40.722Z,11.90
2018-12-07T04:22:45.784Z,11.90
2018-12-07T04:24:50.900Z,11.90
2018-12-07T04:26:55.731Z,11.90
2018-12-07T04:29:01.054Z,11.90
2018-12-07T04:31:07.090Z,11.90
2018-12-07T04:33:13.212Z,11.90
2018-12-07T04:35:18.068Z,11.90
2018-12-07T04:37:23.434Z,11.80
2018-12-07T04:39:28.259Z,11.90
2018-12-07T04:41:32.979Z,11.90
2018-12-07T04:43:37.905Z,11.90
2018-12-07T04:45:42.633Z,11.90
2018-12-07T04:47:47.669Z,11.80
2018-12-07T04:49:52.418Z,11.80
2018-12-07T04:51:57.082Z,11.90
2018-12-07T04:54:02.354Z,11.90
2018-12-07T04:56:08.525Z,11.80
2018-12-07T04:58:13.254Z,11.80
2018-12-07T05:00:18.124Z,11.80
2018-12-07T05:02:22.931Z,11.70
2018-12-07T05:04:27.810Z,11.80
2018-12-07T05:06:32.496Z,11.70
2018-12-07T05:08:37.243Z,11.70
2018-12-07T05:10:42.103Z,11.70
2018-12-07T05:12:47.437Z,11.70
2018-12-07T05:14:52.246Z,11.70
2018-12-07T05:16:57.039Z,11.70
2018-12-07T05:19:01.898Z,11.70
2018-12-07T05:21:07.516Z,11.70
2018-12-07T05:23:12.262Z,11.70
2018-12-07T05:25:17.069Z,11.60
2018-12-07T05:27:25.970Z,11.70
2018-12-07T05:29:32.922Z,11.60
2018-12-07T05:31:39.434Z,11.60
2018-12-07T05:33:44.469Z,11.60
2018-12-07T05:38:07.896Z,11.60
2018-12-07T05:40:12.649Z,11.60
2018-12-07T05:42:17.836Z,11.60
2018-12-07T05:44:23.398Z,11.60
2018-12-07T05:46:28.210Z,11.60
2018-12-07T05:48:33.017Z,11.60
2018-12-07T05:50:38.393Z,11.60
2018-12-07T05:52:43.129Z,11.60
2018-12-07T05:54:47.860Z,11.60
2018-12-07T05:59:10.295Z,11.60
2018-12-07T06:01:15.229Z,11.60
2018-12-07T06:03:19.963Z,11.50
2018-12-07T06:05:24.819Z,11.60
2018-12-07T06:07:29.621Z,11.60
2018-12-07T06:09:34.496Z,11.60
2018-12-07T06:11:39.335Z,11.50
2018-12-07T06:13:46.754Z,11.60
2018-12-07T06:15:57.482Z,11.60
2018-12-07T06:18:04.825Z,11.60
2018-12-07T06:20:10.484Z,11.50
2018-12-07T06:22:15.214Z,11.60
2018-12-07T06:24:19.979Z,11.50
2018-12-07T06:26:24.686Z,11.60
2018-12-07T06:28:29.730Z,11.60
2018-12-07T06:30:34.461Z,11.50
2018-12-07T06:32:39.352Z,11.60
2018-12-07T06:34:44.120Z,11.50
2018-12-07T06:36:49.742Z,11.60
2018-12-07T06:38:54.565Z,11.60
2018-12-07T06:40:59.311Z,11.50
2018-12-07T06:43:05.904Z,11.50
2018-12-07T06:45:13.240Z,11.50
2018-12-07T06:47:18.276Z,11.50
2018-12-07T06:49:23.238Z,11.60
2018-12-07T06:51:28.126Z,11.50
2018-12-07T06:53:33.111Z,11.50
2018-12-07T06:55:38.075Z,11.50
2018-12-07T06:57:43.049Z,11.50
2018-12-07T06:59:47.908Z,11.50
2018-12-07T07:01:52.804Z,11.60
2018-12-07T07:03:57.592Z,11.60
2018-12-07T07:06:02.347Z,11.60
2018-12-07T07:08:07.144Z,11.60
2018-12-07T07:10:12.149Z,11.60
2018-12-07T07:12:16.897Z,11.60
2018-12-07T07:14:21.698Z,11.60
2018-12-07T07:16:26.506Z,11.60
2018-12-07T07:18:31.266Z,11.60
2018-12-07T07:20:36.248Z,11.60
2018-12-07T07:22:42.671Z,11.60
2018-12-07T07:24:47.396Z,11.60
2018-12-07T07:26:52.161Z,11.60
2018-12-07T07:28:58.666Z,11.60
2018-12-07T07:31:03.444Z,11.60
2018-12-07T07:33:08.469Z,11.60
2018-12-07T07:35:14.274Z,11.50
2018-12-07T07:37:19.006Z,11.50
2018-12-07T07:39:23.809Z,11.50
2018-12-07T07:41:28.900Z,11.50
2018-12-07T07:43:33.768Z,11.50
2018-12-07T07:45:38.645Z,11.50
2018-12-07T07:47:43.353Z,11.50
2018-12-07T07:49:48.200Z,11.40
2018-12-07T07:51:53.030Z,11.50
2018-12-07T07:53:57.779Z,11.50
2018-12-07T07:56:02.495Z,11.50
2018-12-07T07:58:07.243Z,11.50
2018-12-07T08:00:12.222Z,11.50
2018-12-07T08:02:16.933Z,11.50
2018-12-07T08:04:21.822Z,11.60
2018-12-07T08:06:27.096Z,11.60
2018-12-07T08:08:32.007Z,11.50
2018-12-07T08:10:36.984Z,11.50
2018-12-07T08:12:42.008Z,11.50
2018-12-07T08:14:46.786Z,11.50
2018-12-07T08:16:51.701Z,11.50
2018-12-07T08:18:56.494Z,11.50
2018-12-07T08:21:01.837Z,11.50
2018-12-07T08:23:06.680Z,11.50
2018-12-07T08:25:12.280Z,11.50
2018-12-07T08:27:17.185Z,11.50
2018-12-07T08:29:22.138Z,11.50
2018-12-07T08:31:27.406Z,11.50
2018-12-07T08:33:35.115Z,11.50
2018-12-07T08:35:39.938Z,11.50
2018-12-07T08:37:45.223Z,11.50
2018-12-07T08:39:52.054Z,11.50
2018-12-07T08:41:57.212Z,11.50
2018-12-07T08:44:02.091Z,11.50
2018-12-07T08:46:06.865Z,11.50
2018-12-07T08:48:11.717Z,11.60
2018-12-07T08:50:16.521Z,11.60
2018-12-07T08:52:21.408Z,11.60
2018-12-07T08:54:26.514Z,11.60
2018-12-07T08:56:31.332Z,11.60
2018-12-07T08:58:36.140Z,11.60
2018-12-07T09:00:41.188Z,11.60
2018-12-07T09:02:47.173Z,11.60
2018-12-07T09:04:52.286Z,11.60
2018-12-07T09:06:57.162Z,11.70
2018-12-07T09:09:03.236Z,11.60
2018-12-07T09:11:09.608Z,11.60
2018-12-07T09:13:15.225Z,11.60
2018-12-07T09:15:21.014Z,11.70
2018-12-07T09:17:26.320Z,11.70
2018-12-07T09:19:31.411Z,11.70
2018-12-07T09:21:45.557Z,11.80
2018-12-07T09:23:50.935Z,11.80
2018-12-07T09:25:57.925Z,11.70
2018-12-07T09:28:02.704Z,11.80
2018-12-07T09:30:09.344Z,11.80
2018-12-07T09:32:14.941Z,11.80
2018-12-07T09:34:19.869Z,11.80
2018-12-07T09:36:24.757Z,11.80
2018-12-07T09:40:51.631Z,11.80
2018-12-07T09:42:56.543Z,11.80
2018-12-07T09:45:01.704Z,11.90
2018-12-07T09:47:06.594Z,11.90
2018-12-07T09:49:11.897Z,11.90
2018-12-07T09:51:17.587Z,11.90
2018-12-07T09:53:30.770Z,11.90
2018-12-07T09:55:35.693Z,12.00
2018-12-07T09:59:45.599Z,12.00
2018-12-07T10:01:51.637Z,12.00
2018-12-07T10:03:58.836Z,12.00
2018-12-07T10:06:04.113Z,12.00
2018-12-07T10:08:09.078Z,12.00
2018-12-07T10:10:14.932Z,12.00
2018-12-07T10:12:19.975Z,12.10
2018-12-07T10:14:25.624Z,12.10
2018-12-07T10:16:31.617Z,12.20
2018-12-07T10:18:38.219Z,12.20
2018-12-07T10:20:43.334Z,12.20
2018-12-07T10:22:50.451Z,12.20
2018-12-07T10:24:55.953Z,12.20
2018-12-07T10:27:08.326Z,12.10
2018-12-07T10:29:13.499Z,12.20
2018-12-07T10:31:18.412Z,12.20
2018-12-07T10:33:23.404Z,12.20
2018-12-07T10:35:29.570Z,12.20
2018-12-07T10:37:34.897Z,12.20
2018-12-07T10:39:39.947Z,12.30
2018-12-07T10:41:44.951Z,12.30
2018-12-07T10:43:50.027Z,12.30
2018-12-07T10:45:55.131Z,12.30
2018-12-07T10:48:00.029Z,12.30
2018-12-07T10:50:06.157Z,12.30
2018-12-07T10:52:11.079Z,12.40
2018-12-07T10:54:16.227Z,12.40
2018-12-07T10:56:21.366Z,12.40
2018-12-07T10:58:26.973Z,12.30
2018-12-07T11:00:37.544Z,12.40
2018-12-07T11:02:47.628Z,12.40
2018-12-07T11:04:58.316Z,12.40
2018-12-07T11:07:08.392Z,12.40
2018-12-07T11:09:18.435Z,12.40
2018-12-07T11:11:28.338Z,12.40
2018-12-07T11:16:11.596Z,12.50
2018-12-07T11:18:21.365Z,12.60
2018-12-07T11:20:31.364Z,12.60
2018-12-07T11:22:41.162Z,12.60
2018-12-07T11:24:51.193Z,12.60
2018-12-07T11:27:01.348Z,12.70
2018-12-07T11:29:14.761Z,12.60
2018-12-07T11:31:26.144Z,12.60
2018-12-07T11:34:39.990Z,12.60
2018-12-07T11:36:44.941Z,12.60
2018-12-07T11:38:50.720Z,12.50
2018-12-07T11:40:57.207Z,12.50
2018-12-07T11:43:03.822Z,12.50
2018-12-07T11:45:25.577Z,12.50
2018-12-07T11:47:37.014Z,12.50
2018-12-07T11:49:44.284Z,12.50
2018-12-07T11:54:12.224Z,12.60
2018-12-07T11:56:18.101Z,12.70
2018-12-07T11:58:23.802Z,12.70
2018-12-07T12:00:43.346Z,12.80
2018-12-07T12:02:50.773Z,12.80
2018-12-07T12:04:59.039Z,12.80
2018-12-07T12:07:05.226Z,12.90
2018-12-07T12:09:14.946Z,12.90
2018-12-07T12:11:23.203Z,12.90
2018-12-07T12:13:29.951Z,12.90
2018-12-07T12:15:36.206Z,13.00
2018-12-07T12:17:44.244Z,12.90
2018-12-07T12:19:49.358Z,12.90
2018-12-07T12:21:56.834Z,13.00
2018-12-07T12:24:06.074Z,13.00
2018-12-07T12:26:11.144Z,13.10
2018-12-07T12:28:16.136Z,13.20
2018-12-07T12:30:21.162Z,13.20
2018-12-07T12:32:26.129Z,13.20
2018-12-07T12:34:32.826Z,13.10
2018-12-07T12:36:37.672Z,13.10
2018-12-07T12:38:44.328Z,13.10
2018-12-07T12:40:51.631Z,13.10
2018-12-07T12:42:57.577Z,13.00
2018-12-07T12:45:09.396Z,13.00
2018-12-07T12:47:14.382Z,13.00
2018-12-07T12:49:31.245Z,13.00
2018-12-07T12:51:36.557Z,13.00
2018-12-07T12:53:42.454Z,12.90
2018-12-07T12:55:47.438Z,13.00
2018-12-07T12:57:53.806Z,13.10
2018-12-07T12:59:59.456Z,13.10
2018-12-07T13:02:05.690Z,13.10
2018-12-07T13:04:11.178Z,13.10
2018-12-07T13:06:16.953Z,13.20
2018-12-07T13:08:22.794Z,13.20
2018-12-07T13:10:28.752Z,13.20
2018-12-07T13:12:34.410Z,13.20
2018-12-07T13:14:40.528Z,13.20
2018-12-07T13:16:49.554Z,13.20
2018-12-07T13:18:55.489Z,13.30
2018-12-07T13:21:04.326Z,13.30
2018-12-07T13:23:10.799Z,13.20
2018-12-07T13:25:20.642Z,13.20
2018-12-07T13:27:33.180Z,13.20
2018-12-07T13:29:41.547Z,13.20
2018-12-07T13:31:46.501Z,13.10
2018-12-07T13:33:51.464Z,13.00
2018-12-07T13:35:56.867Z,13.00
2018-12-07T13:38:02.798Z,13.00
2018-12-07T13:40:11.054Z,13.00
2018-12-07T13:42:18.002Z,12.90
2018-12-07T13:44:23.913Z,12.90
2018-12-07T13:46:30.696Z,12.90
2018-12-07T13:48:36.120Z,12.90
2018-12-07T13:50:42.031Z,12.90
2018-12-07T13:52:47.270Z,12.90
2018-12-07T13:54:54.380Z,12.90
2018-12-07T13:57:01.253Z,12.90
2018-12-07T13:59:09.117Z,13.00
2018-12-07T14:01:16.260Z,13.00
2018-12-07T14:03:25.928Z,12.90
2018-12-07T14:05:32.808Z,12.90
2018-12-07T14:07:44.255Z,12.90
2018-12-07T14:09:50.670Z,12.90
2018-12-07T14:11:57.146Z,12.80
2018-12-07T14:14:03.758Z,12.80
2018-12-07T14:16:13.203Z,12.80
2018-12-07T14:18:19.089Z,12.70
2018-12-07T14:20:24.716Z,12.70
2018-12-07T14:24:48.320Z,12.60
2018-12-07T14:26:59.509Z,12.60
2018-12-07T14:29:03.721Z,12.60
2018-12-07T14:31:08.930Z,12.60
2018-12-07T14:33:16.401Z,12.40
2018-12-07T14:35:23.607Z,12.40
2018-12-07T14:37:35.351Z,12.30
2018-12-07T14:39:43.038Z,12.20
2018-12-07T14:41:49.884Z,12.20
2018-12-07T14:43:55.371Z,12.20
2018-12-07T14:46:00.819Z,12.10
2018-12-07T14:48:07.269Z,12.10
2018-12-07T14:50:13.465Z,12.10
2018-12-07T14:52:20.651Z,12.10
2018-12-07T14:54:26.960Z,12.10
2018-12-07T14:56:34.650Z,12.10
2018-12-07T14:58:40.457Z,12.10
2018-12-07T15:00:46.734Z,12.10
2018-12-07T15:02:52.231Z,12.10
2018-12-07T15:04:58.614Z,12.10
2018-12-07T15:07:04.355Z,12.10
2018-12-07T15:09:11.194Z,12.10
2018-12-07T15:11:17.066Z,12.10
2018-12-07T15:13:24.634Z,12.10
2018-12-07T15:15:29.938Z,12.10
2018-12-07T15:17:35.681Z,12.10
2018-12-07T15:19:42.779Z,12.10
2018-12-07T15:21:47.988Z,12.00
2018-12-07T15:23:54.594Z,12.00
2018-12-07T15:26:00.656Z,12.00
2018-12-07T15:28:06.009Z,11.90
2018-12-07T15:30:14.001Z,11.90
2018-12-07T15:32:20.545Z,11.80
2018-12-07T15:34:26.669Z,11.80
2018-12-07T15:36:31.904Z,11.70
2018-12-07T15:38:38.701Z,11.70
2018-12-07T15:40:44.265Z,11.70
2018-12-07T15:42:50.929Z,11.80
2018-12-07T15:44:58.935Z,11.70
2018-12-07T15:47:09.624Z,11.70
2018-12-07T15:51:35.901Z,11.60
2018-12-07T15:53:43.254Z,11.60
2018-12-07T15:55:51.479Z,11.50
2018-12-07T15:58:00.778Z,11.50
2018-12-07T16:00:09.219Z,11.50
2018-12-07T16:02:18.440Z,11.50
2018-12-07T16:04:24.406Z,11.50
2018-12-07T16:09:05.437Z,11.40
2018-12-07T16:11:11.378Z,11.40
2018-12-07T16:13:17.358Z,11.40
2018-12-07T16:15:22.822Z,11.40
2018-12-07T16:17:31.961Z,11.30
2018-12-07T16:19:41.261Z,11.40
2018-12-07T16:21:51.366Z,11.30
2018-12-07T16:23:58.179Z,11.30
2018-12-07T16:26:03.657Z,11.30
2018-12-07T16:28:08.672Z,11.30
2018-12-07T16:30:14.230Z,11.20
2018-12-07T16:32:21.050Z,11.20
2018-12-07T16:34:26.397Z,11.30
2018-12-07T16:36:32.447Z,11.20
2018-12-07T16:38:39.524Z,11.20
2018-12-07T16:40:46.999Z,11.20
2018-12-07T16:42:53.592Z,11.10
2018-12-07T16:45:03.405Z,11.10
2018-12-07T16:47:08.497Z,11.00
2018-12-07T16:49:15.075Z,11.00
2018-12-07T16:51:21.721Z,11.10
2018-12-07T16:53:27.668Z,11.10
2018-12-07T16:55:35.539Z,11.10
2018-12-07T16:57:41.903Z,11.00
2018-12-07T16:59:47.797Z,11.00
2018-12-07T17:01:53.246Z,11.00
2018-12-07T17:03:58.878Z,11.00
2018-12-07T17:06:08.363Z,11.00
2018-12-07T17:08:13.599Z,11.00
2018-12-07T17:10:19.598Z,11.00
2018-12-07T17:12:24.885Z,11.00
2018-12-07T17:14:30.433Z,11.00
2018-12-07T17:16:36.561Z,11.00
2018-12-07T17:18:43.333Z,10.90
2018-12-07T17:20:48.304Z,10.90
2018-12-07T17:22:53.592Z,11.00
2018-12-07T17:24:58.967Z,11.00
2018-12-07T17:27:04.981Z,11.00
2018-12-07T17:29:11.301Z,11.00
2018-12-07T17:31:17.562Z,11.00
2018-12-07T17:33:23.750Z,11.00
2018-12-07T17:35:28.918Z,11.10
2018-12-07T17:37:34.148Z,11.10
2018-12-07T17:39:40.434Z,11.10
2018-12-07T17:41:47.687Z,11.10
2018-12-07T17:43:52.933Z,11.10
2018-12-07T17:45:59.740Z,11.10
2018-12-07T17:48:05.318Z,11.00
2018-12-07T17:50:11.561Z,10.90
2018-12-07T17:52:17.082Z,10.80
2018-12-07T17:54:24.537Z,10.80
2018-12-07T17:56:30.439Z,10.60
2018-12-07T17:58:57.816Z,10.50
2018-12-07T18:01:05.846Z,10.50
2018-12-07T18:03:12.624Z,10.40
2018-12-07T18:05:23.561Z,10.30
2018-12-07T18:07:29.798Z,10.20
2018-12-07T18:09:57.483Z,9.90
2018-12-07T18:14:24.762Z,9.60
2018-12-07T18:16:31.816Z,9.40
2018-12-07T18:18:37.061Z,9.20
2018-12-07T18:20:44.355Z,9.00
2018-12-07T18:22:50.513Z,9.00
2018-12-07T18:24:56.140Z,8.90
2018-12-07T18:27:02.299Z,8.80
2018-12-07T18:29:09.604Z,8.70
2018-12-07T18:31:14.852Z,8.60
2018-12-07T18:33:21.343Z,8.60
2018-12-07T18:35:28.874Z,8.60
2018-12-07T18:37:35.035Z,8.60
2018-12-07T18:39:40.222Z,8.50
2018-12-07T18:41:47.750Z,8.50
2018-12-07T18:43:55.095Z,8.40
2018-12-07T18:46:04.690Z,8.50
2018-12-07T18:48:14.791Z,8.50
2018-12-07T18:50:20.557Z,8.40
2018-12-07T18:52:30.486Z,8.40
2018-12-07T18:54:39.217Z,8.40
2018-12-07T18:56:46.971Z,8.30
2018-12-07T18:58:52.996Z,8.30
2018-12-07T19:00:58.105Z,8.30
2018-12-07T19:03:03.253Z,8.30
2018-12-07T19:05:09.007Z,8.40
2018-12-07T19:07:14.960Z,8.30
2018-12-07T19:09:21.441Z,8.40
2018-12-07T19:11:27.580Z,8.40
2018-12-07T19:13:35.275Z,8.20
2018-12-07T19:15:41.653Z,8.20
2018-12-07T19:17:46.625Z,8.20
2018-12-07T19:19:51.836Z,8.20
2018-12-07T19:21:57.998Z,8.20
2018-12-07T19:24:06.758Z,8.20
2018-12-07T19:26:14.041Z,8.30
2018-12-07T19:28:19.616Z,8.30
2018-12-07T19:30:26.287Z,8.20
2018-12-07T19:32:32.746Z,8.20
2018-12-07T19:34:43.541Z,8.20
2018-12-07T19:36:48.905Z,8.20
2018-12-07T19:38:57.344Z,8.20
2018-12-07T19:41:04.563Z,8.20
2018-12-07T19:43:14.535Z,8.20
2018-12-07T19:45:22.812Z,8.20
2018-12-07T19:47:31.192Z,8.20
2018-12-07T19:49:38.251Z,8.20
2018-12-07T19:51:49.991Z,8.20
2018-12-07T19:53:57.202Z,8.20
2018-12-07T19:56:05.380Z,8.10
2018-12-07T19:58:11.428Z,8.10
2018-12-07T20:00:19.287Z,8.10
2018-12-07T20:02:26.629Z,8.10
2018-12-07T20:04:32.683Z,8.10
2018-12-07T20:06:40.196Z,8.10
2018-12-07T20:08:45.980Z,8.10
2018-12-07T20:10:54.003Z,8.10
2018-12-07T20:12:59.543Z,8.10
2018-12-07T20:15:07.410Z,8.20
2018-12-07T20:17:13.441Z,8.20
2018-12-07T20:19:18.983Z,8.20
2018-12-07T20:21:24.673Z,8.10
2018-12-07T20:23:30.010Z,8.20
2018-12-07T20:25:36.591Z,8.20
2018-12-07T20:27:42.314Z,8.20
2018-12-07T20:29:47.901Z,8.10
2018-12-07T20:31:53.320Z,8.10
2018-12-07T20:33:59.181Z,8.10
2018-12-07T20:36:05.795Z,8.00
2018-12-07T20:38:11.438Z,7.90
2018-12-07T20:40:19.148Z,7.80
2018-12-07T20:42:25.588Z,7.70
2018-12-07T20:44:32.339Z,7.60
2018-12-07T20:46:38.048Z,7.60
2018-12-07T20:48:45.675Z,7.60
2018-12-07T20:50:51.882Z,7.60
2018-12-07T20:52:57.198Z,7.50
2018-12-07T20:55:03.585Z,7.50
2018-12-07T20:57:11.055Z,7.50
2018-12-07T20:59:17.583Z,7.40
2018-12-07T21:01:25.191Z,7.40
2018-12-07T21:04:37.470Z,7.40
2018-12-07T21:08:09.602Z,7.40
2018-12-07T21:11:13.336Z,7.50
2018-12-07T21:17:15.294Z,7.60
2018-12-07T21:19:26.672Z,7.60
2018-12-07T21:21:32.918Z,7.70
2018-12-07T21:23:40.394Z,7.70
2018-12-07T21:25:46.007Z,7.70
2018-12-07T21:27:51.219Z,7.70
2018-12-07T21:32:42.189Z,7.80
2018-12-07T21:34:59.564Z,7.80
2018-12-07T21:37:04.726Z,7.80
2018-12-07T21:39:24.778Z,7.90
2018-12-07T21:41:30.794Z,7.90
2018-12-07T21:43:37.304Z,7.90
2018-12-07T21:45:43.144Z,7.80
2018-12-07T21:48:24.317Z,7.80
2018-12-07T21:50:30.031Z,7.70
2018-12-07T21:52:35.423Z,7.70
2018-12-07T21:54:41.865Z,7.70
2018-12-07T21:56:46.950Z,7.60
2018-12-07T21:58:51.844Z,7.60
2018-12-07T22:00:56.993Z,7.50
2018-12-07T22:03:02.637Z,7.50
2018-12-07T22:05:09.375Z,7.50
2018-12-07T22:07:14.459Z,7.50
2018-12-07T22:09:20.265Z,7.50
2018-12-07T22:11:25.897Z,7.50
2018-12-07T22:13:31.013Z,7.50
2018-12-07T22:15:37.359Z,7.40
2018-12-07T22:17:42.917Z,7.40
2018-12-07T22:19:47.723Z,7.40
2018-12-07T22:21:52.864Z,7.40
2018-12-07T22:23:57.810Z,7.40
2018-12-07T22:26:03.141Z,7.40
2018-12-07T22:28:09.100Z,7.50
2018-12-07T22:30:14.680Z,7.50
2018-12-07T22:32:19.923Z,7.50
2018-12-07T22:34:25.418Z,7.50
2018-12-07T22:36:30.302Z,7.60
2018-12-07T22:38:36.383Z,7.60
2018-12-07T22:40:41.599Z,7.60
2018-12-07T22:42:46.593Z,7.50
2018-12-07T22:44:51.910Z,7.60
2018-12-07T22:46:57.035Z,7.50
2018-12-07T22:49:02.229Z,7.50
2018-12-07T22:51:08.453Z,7.60
2018-12-07T22:53:13.111Z,7.60
2018-12-07T22:55:18.065Z,7.60
2018-12-07T22:57:22.942Z,7.60
2018-12-07T22:59:28.647Z,7.60
2018-12-07T23:01:34.112Z,7.50
2018-12-07T23:03:38.898Z,7.40
2018-12-07T23:05:43.694Z,7.40
2018-12-07T23:07:48.448Z,7.40
2018-12-07T23:09:54.075Z,7.30
2018-12-07T23:11:59.134Z,7.30
2018-12-07T23:14:04.124Z,7.30
2018-12-07T23:16:08.914Z,7.40
2018-12-07T23:18:13.725Z,7.30
2018-12-07T23:20:18.893Z,7.20
2018-12-07T23:22:24.515Z,7.30
2018-12-07T23:24:29.270Z,7.30
2018-12-07T23:26:34.314Z,7.30
2018-12-07T23:28:39.686Z,7.40
2018-12-07T23:30:45.211Z,7.40
2018-12-07T23:32:50.048Z,7.30
2018-12-07T23:34:54.839Z,7.30
2018-12-07T23:36:59.706Z,7.30
2018-12-07T23:39:05.663Z,7.30
2018-12-07T23:41:10.437Z,7.30
2018-12-07T23:43:15.163Z,7.30
2018-12-07T23:45:19.818Z,7.30
2018-12-07T23:47:25.188Z,7.20
2018-12-07T23:49:30.865Z,7.10
2018-12-07T23:51:35.744Z,7.10
2018-12-07T23:53:41.170Z,7.20
2018-12-07T23:55:47.277Z,7.20
2018-12-07T23:57:52.094Z,7.20
2018-12-07T23:59:57.241Z,7.20
